sensor_id;sensor_type;location;lat;lon;timestamp;temperature;humidity
7958;DHT22;4024;52.172;5.378;2024-01-06T00:00:20;8.40;99.90
7958;DHT22;4024;52.172;5.378;2024-01-06T00:02:48;8.40;99.90
7958;DHT22;4024;52.172;5.378;2024-01-06T00:05:14;8.40;99.90
7958;DHT22;4024;52.172;5.378;2024-01-06T00:07:40;8.40;99.90
7958;DHT22;4024;52.172;5.378;2024-01-06T00:10:06;8.40;99.90
7958;DHT22;4024;52.172;5.378;2024-01-06T00:12:32;8.30;99.90
7958;DHT22;4024;52.172;5.378;2024-01-06T00:14:57;8.30;99.90
7958;DHT22;4024;52.172;5.378;2024-01-06T00:17:23;8.20;99.90
7958;DHT22;4024;52.172;5.378;2024-01-06T00:19:48;8.20;99.90
7958;DHT22;4024;52.172;5.378;2024-01-06T00:22:17;8.20;99.90
7958;DHT22;4024;52.172;5.378;2024-01-06T00:24:43;8.20;99.90
7958;DHT22;4024;52.172;5.378;2024-01-06T00:27:09;8.10;99.90
7958;DHT22;4024;52.172;5.378;2024-01-06T00:29:34;8.10;99.90
7958;DHT22;4024;52.172;5.378;2024-01-06T00:32:00;8.10;99.90
7958;DHT22;4024;52.172;5.378;2024-01-06T00:34:25;8.00;99.90
7958;DHT22;4024;52.172;5.378;2024-01-06T00:36:51;8.10;99.90
7958;DHT22;4024;52.172;5.378;2024-01-06T00:39:16;8.00;99.90
7958;DHT22;4024;52.172;5.378;2024-01-06T00:41:43;8.00;99.90
7958;DHT22;4024;52.172;5.378;2024-01-06T00:44:09;8.00;99.90
7958;DHT22;4024;52.172;5.378;2024-01-06T00:46:34;8.00;99.90
7958;DHT22;4024;52.172;5.378;2024-01-06T00:49:00;8.00;99.90
7958;DHT22;4024;52.172;5.378;2024-01-06T00:51:26;8.00;99.90
7958;DHT22;4024;52.172;5.378;2024-01-06T00:53:51;8.00;99.90
7958;DHT22;4024;52.172;5.378;2024-01-06T00:56:17;8.00;99.90
7958;DHT22;4024;52.172;5.378;2024-01-06T00:58:42;8.00;99.90
7958;DHT22;4024;52.172;5.378;2024-01-06T01:01:08;7.90;99.90
7958;DHT22;4024;52.172;5.378;2024-01-06T01:03:33;7.90;99.90
7958;DHT22;4024;52.172;5.378;2024-01-06T01:05:59;7.90;99.90
7958;DHT22;4024;52.172;5.378;2024-01-06T01:08:24;7.90;99.90
7958;DHT22;4024;52.172;5.378;2024-01-06T01:10:50;7.90;99.90
7958;DHT22;4024;52.172;5.378;2024-01-06T01:13:16;7.80;99.90
7958;DHT22;4024;52.172;5.378;2024-01-06T01:15:41;7.80;99.90
7958;DHT22;4024;52.172;5.378;2024-01-06T01:18:07;7.80;99.90
7958;DHT22;4024;52.172;5.378;2024-01-06T01:20:33;7.80;99.90
7958;DHT22;4024;52.172;5.378;2024-01-06T01:22:58;7.80;99.90
7958;DHT22;4024;52.172;5.378;2024-01-06T01:25:24;7.80;99.90
7958;DHT22;4024;52.172;5.378;2024-01-06T01:27:50;7.80;99.90
7958;DHT22;4024;52.172;5.378;2024-01-06T01:30:15;7.70;99.90
7958;DHT22;4024;52.172;5.378;2024-01-06T01:32:41;7.70;99.90
7958;DHT22;4024;52.172;5.378;2024-01-06T01:35:07;7.70;99.90
7958;DHT22;4024;52.172;5.378;2024-01-06T01:37:33;7.60;99.90
7958;DHT22;4024;52.172;5.378;2024-01-06T01:39:58;7.60;99.90
7958;DHT22;4024;52.172;5.378;2024-01-06T01:42:24;7.60;99.90
7958;DHT22;4024;52.172;5.378;2024-01-06T01:44:49;7.60;99.90
7958;DHT22;4024;52.172;5.378;2024-01-06T01:47:15;7.60;99.90
7958;DHT22;4024;52.172;5.378;2024-01-06T01:49:45;7.60;99.90
7958;DHT22;4024;52.172;5.378;2024-01-06T01:52:13;7.50;99.90
7958;DHT22;4024;52.172;5.378;2024-01-06T01:54:39;7.60;99.90
7958;DHT22;4024;52.172;5.378;2024-01-06T01:57:05;7.50;99.90
7958;DHT22;4024;52.172;5.378;2024-01-06T01:59:30;7.60;99.90
7958;DHT22;4024;52.172;5.378;2024-01-06T02:01:56;7.60;99.90
7958;DHT22;4024;52.172;5.378;2024-01-06T02:04:22;7.50;99.90
7958;DHT22;4024;52.172;5.378;2024-01-06T02:06:48;7.50;99.90
7958;DHT22;4024;52.172;5.378;2024-01-06T02:09:13;7.50;99.90
7958;DHT22;4024;52.172;5.378;2024-01-06T02:11:39;7.50;99.90
7958;DHT22;4024;52.172;5.378;2024-01-06T02:14:04;7.50;99.90
7958;DHT22;4024;52.172;5.378;2024-01-06T02:16:30;7.50;99.90
7958;DHT22;4024;52.172;5.378;2024-01-06T02:18:55;7.50;99.90
7958;DHT22;4024;52.172;5.378;2024-01-06T02:21:23;7.50;99.90
7958;DHT22;4024;52.172;5.378;2024-01-06T02:23:49;7.50;99.90
7958;DHT22;4024;52.172;5.378;2024-01-06T02:26:15;7.50;99.90
7958;DHT22;4024;52.172;5.378;2024-01-06T02:28:41;7.50;99.90
7958;DHT22;4024;52.172;5.378;2024-01-06T02:31:07;7.50;99.90
7958;DHT22;4024;52.172;5.378;2024-01-06T02:33:32;7.50;99.90
7958;DHT22;4024;52.172;5.378;2024-01-06T02:35:58;7.50;99.90
7958;DHT22;4024;52.172;5.378;2024-01-06T02:38:23;7.50;99.90
7958;DHT22;4024;52.172;5.378;2024-01-06T02:40:49;7.50;99.90
7958;DHT22;4024;52.172;5.378;2024-01-06T02:43:14;7.40;99.90
7958;DHT22;4024;52.172;5.378;2024-01-06T02:45:40;7.40;99.90
7958;DHT22;4024;52.172;5.378;2024-01-06T02:48:06;7.40;99.90
7958;DHT22;4024;52.172;5.378;2024-01-06T02:50:31;7.40;99.90
7958;DHT22;4024;52.172;5.378;2024-01-06T02:52:57;7.40;99.90
7958;DHT22;4024;52.172;5.378;2024-01-06T02:55:22;7.40;99.90
7958;DHT22;4024;52.172;5.378;2024-01-06T02:57:48;7.40;99.90
7958;DHT22;4024;52.172;5.378;2024-01-06T03:00:14;7.40;99.90
7958;DHT22;4024;52.172;5.378;2024-01-06T03:02:39;7.40;99.90
7958;DHT22;4024;52.172;5.378;2024-01-06T03:05:09;7.40;99.90
7958;DHT22;4024;52.172;5.378;2024-01-06T03:07:35;7.40;99.90
7958;DHT22;4024;52.172;5.378;2024-01-06T03:10:00;7.40;99.90
7958;DHT22;4024;52.172;5.378;2024-01-06T03:12:26;7.40;99.90
7958;DHT22;4024;52.172;5.378;2024-01-06T03:14:51;7.40;99.90
7958;DHT22;4024;52.172;5.378;2024-01-06T03:17:18;7.40;99.90
7958;DHT22;4024;52.172;5.378;2024-01-06T03:19:44;7.40;99.90
7958;DHT22;4024;52.172;5.378;2024-01-06T03:22:09;7.30;99.90
7958;DHT22;4024;52.172;5.378;2024-01-06T03:24:35;7.40;99.90
7958;DHT22;4024;52.172;5.378;2024-01-06T03:27:01;7.30;99.90
7958;DHT22;4024;52.172;5.378;2024-01-06T03:29:26;7.30;99.90
7958;DHT22;4024;52.172;5.378;2024-01-06T03:31:52;7.30;99.90
7958;DHT22;4024;52.172;5.378;2024-01-06T03:34:17;7.30;99.90
7958;DHT22;4024;52.172;5.378;2024-01-06T03:36:43;7.30;99.90
7958;DHT22;4024;52.172;5.378;2024-01-06T03:39:08;7.30;99.90
7958;DHT22;4024;52.172;5.378;2024-01-06T03:41:35;7.30;99.90
7958;DHT22;4024;52.172;5.378;2024-01-06T03:44:01;7.30;99.90
7958;DHT22;4024;52.172;5.378;2024-01-06T03:46:27;7.20;99.90
7958;DHT22;4024;52.172;5.378;2024-01-06T03:48:53;7.30;99.90
7958;DHT22;4024;52.172;5.378;2024-01-06T03:51:18;7.30;99.90
7958;DHT22;4024;52.172;5.378;2024-01-06T03:53:44;7.30;99.90
7958;DHT22;4024;52.172;5.378;2024-01-06T03:56:09;7.20;99.90
7958;DHT22;4024;52.172;5.378;2024-01-06T03:58:35;7.20;99.90
7958;DHT22;4024;52.172;5.378;2024-01-06T04:01:01;7.20;99.90
7958;DHT22;4024;52.172;5.378;2024-01-06T04:03:26;7.20;99.90
7958;DHT22;4024;52.172;5.378;2024-01-06T04:05:52;7.20;99.90
7958;DHT22;4024;52.172;5.378;2024-01-06T04:08:18;7.10;99.90
7958;DHT22;4024;52.172;5.378;2024-01-06T04:10:44;7.10;99.90
7958;DHT22;4024;52.172;5.378;2024-01-06T04:13:11;7.10;99.90
7958;DHT22;4024;52.172;5.378;2024-01-06T04:15:36;7.00;99.90
7958;DHT22;4024;52.172;5.378;2024-01-06T04:18:03;7.00;99.90
7958;DHT22;4024;52.172;5.378;2024-01-06T04:20:29;7.00;99.90
7958;DHT22;4024;52.172;5.378;2024-01-06T04:22:55;7.10;99.90
7958;DHT22;4024;52.172;5.378;2024-01-06T04:25:20;7.00;99.90
7958;DHT22;4024;52.172;5.378;2024-01-06T04:27:46;7.00;99.90
7958;DHT22;4024;52.172;5.378;2024-01-06T04:30:14;7.00;99.90
7958;DHT22;4024;52.172;5.378;2024-01-06T04:32:40;7.00;99.90
7958;DHT22;4024;52.172;5.378;2024-01-06T04:35:06;7.00;99.90
7958;DHT22;4024;52.172;5.378;2024-01-06T04:37:31;7.00;99.90
7958;DHT22;4024;52.172;5.378;2024-01-06T04:39:57;7.00;99.90
7958;DHT22;4024;52.172;5.378;2024-01-06T04:42:23;6.90;99.90
7958;DHT22;4024;52.172;5.378;2024-01-06T04:44:49;6.90;99.90
7958;DHT22;4024;52.172;5.378;2024-01-06T04:47:15;6.90;99.90
7958;DHT22;4024;52.172;5.378;2024-01-06T04:49:41;6.90;99.90
7958;DHT22;4024;52.172;5.378;2024-01-06T04:52:06;6.90;99.90
7958;DHT22;4024;52.172;5.378;2024-01-06T04:54:32;6.90;99.90
7958;DHT22;4024;52.172;5.378;2024-01-06T04:56:58;6.80;99.90
7958;DHT22;4024;52.172;5.378;2024-01-06T04:59:24;6.80;99.90
7958;DHT22;4024;52.172;5.378;2024-01-06T05:01:50;6.80;99.90
7958;DHT22;4024;52.172;5.378;2024-01-06T05:04:17;6.80;99.90
7958;DHT22;4024;52.172;5.378;2024-01-06T05:06:43;6.80;99.90
7958;DHT22;4024;52.172;5.378;2024-01-06T05:09:08;6.80;99.90
7958;DHT22;4024;52.172;5.378;2024-01-06T05:11:34;6.80;99.90
7958;DHT22;4024;52.172;5.378;2024-01-06T05:14:00;6.70;99.90
7958;DHT22;4024;52.172;5.378;2024-01-06T05:16:25;6.70;99.90
7958;DHT22;4024;52.172;5.378;2024-01-06T05:18:51;6.70;99.90
7958;DHT22;4024;52.172;5.378;2024-01-06T05:21:16;6.70;99.90
7958;DHT22;4024;52.172;5.378;2024-01-06T05:23:42;6.70;99.90
7958;DHT22;4024;52.172;5.378;2024-01-06T05:26:08;6.60;99.90
7958;DHT22;4024;52.172;5.378;2024-01-06T05:28:35;6.70;99.90
7958;DHT22;4024;52.172;5.378;2024-01-06T05:31:00;6.60;99.90
7958;DHT22;4024;52.172;5.378;2024-01-06T05:33:26;6.60;99.90
7958;DHT22;4024;52.172;5.378;2024-01-06T05:35:51;6.60;99.90
7958;DHT22;4024;52.172;5.378;2024-01-06T05:38:17;6.60;99.90
7958;DHT22;4024;52.172;5.378;2024-01-06T05:40:42;6.60;99.90
7958;DHT22;4024;52.172;5.378;2024-01-06T05:43:08;6.60;99.90
7958;DHT22;4024;52.172;5.378;2024-01-06T05:45:34;6.50;99.90
7958;DHT22;4024;52.172;5.378;2024-01-06T05:47:59;6.50;99.90
7958;DHT22;4024;52.172;5.378;2024-01-06T05:50:25;6.60;99.90
7958;DHT22;4024;52.172;5.378;2024-01-06T05:52:50;6.50;99.90
7958;DHT22;4024;52.172;5.378;2024-01-06T05:55:17;6.50;99.90
7958;DHT22;4024;52.172;5.378;2024-01-06T05:57:43;6.50;99.90
7958;DHT22;4024;52.172;5.378;2024-01-06T06:00:09;6.50;99.90
7958;DHT22;4024;52.172;5.378;2024-01-06T06:02:36;6.50;99.90
7958;DHT22;4024;52.172;5.378;2024-01-06T06:05:02;6.50;99.90
7958;DHT22;4024;52.172;5.378;2024-01-06T06:07:27;6.50;99.90
7958;DHT22;4024;52.172;5.378;2024-01-06T06:09:53;6.50;99.90
7958;DHT22;4024;52.172;5.378;2024-01-06T06:12:19;6.50;99.90
7958;DHT22;4024;52.172;5.378;2024-01-06T06:14:44;6.50;99.90
7958;DHT22;4024;52.172;5.378;2024-01-06T06:17:10;6.50;99.90
7958;DHT22;4024;52.172;5.378;2024-01-06T06:19:36;6.50;99.90
7958;DHT22;4024;52.172;5.378;2024-01-06T06:22:01;6.50;99.90
7958;DHT22;4024;52.172;5.378;2024-01-06T06:24:27;6.40;99.90
7958;DHT22;4024;52.172;5.378;2024-01-06T06:26:52;6.40;99.90
7958;DHT22;4024;52.172;5.378;2024-01-06T06:29:18;6.50;99.90
7958;DHT22;4024;52.172;5.378;2024-01-06T06:31:46;6.40;99.90
7958;DHT22;4024;52.172;5.378;2024-01-06T06:34:12;6.40;99.90
7958;DHT22;4024;52.172;5.378;2024-01-06T06:36:38;6.30;99.90
7958;DHT22;4024;52.172;5.378;2024-01-06T06:39:03;6.40;99.90
7958;DHT22;4024;52.172;5.378;2024-01-06T06:41:30;6.30;99.90
7958;DHT22;4024;52.172;5.378;2024-01-06T06:43:57;6.30;99.90
7958;DHT22;4024;52.172;5.378;2024-01-06T06:46:23;6.30;99.90
7958;DHT22;4024;52.172;5.378;2024-01-06T06:48:48;6.30;99.90
7958;DHT22;4024;52.172;5.378;2024-01-06T06:51:15;6.30;99.90
7958;DHT22;4024;52.172;5.378;2024-01-06T06:53:41;6.30;99.90
7958;DHT22;4024;52.172;5.378;2024-01-06T06:56:06;6.30;99.90
7958;DHT22;4024;52.172;5.378;2024-01-06T06:58:32;6.30;99.90
7958;DHT22;4024;52.172;5.378;2024-01-06T07:00:58;6.30;99.90
7958;DHT22;4024;52.172;5.378;2024-01-06T07:03:24;6.30;99.90
7958;DHT22;4024;52.172;5.378;2024-01-06T07:05:49;6.20;99.90
7958;DHT22;4024;52.172;5.378;2024-01-06T07:08:15;6.20;99.90
7958;DHT22;4024;52.172;5.378;2024-01-06T07:10:41;6.20;99.90
7958;DHT22;4024;52.172;5.378;2024-01-06T07:13:07;6.30;99.90
7958;DHT22;4024;52.172;5.378;2024-01-06T07:15:32;6.20;99.90
7958;DHT22;4024;52.172;5.378;2024-01-06T07:17:58;6.20;99.90
7958;DHT22;4024;52.172;5.378;2024-01-06T07:20:23;6.20;99.90
7958;DHT22;4024;52.172;5.378;2024-01-06T07:22:49;6.10;99.90
7958;DHT22;4024;52.172;5.378;2024-01-06T07:25:15;6.20;99.90
7958;DHT22;4024;52.172;5.378;2024-01-06T07:27:40;6.30;99.90
7958;DHT22;4024;52.172;5.378;2024-01-06T07:30:06;6.20;99.90
7958;DHT22;4024;52.172;5.378;2024-01-06T07:32:34;6.20;99.90
7958;DHT22;4024;52.172;5.378;2024-01-06T07:35:00;6.20;99.90
7958;DHT22;4024;52.172;5.378;2024-01-06T07:37:26;6.20;99.90
7958;DHT22;4024;52.172;5.378;2024-01-06T07:39:51;6.20;99.90
7958;DHT22;4024;52.172;5.378;2024-01-06T07:42:17;6.20;99.90
7958;DHT22;4024;52.172;5.378;2024-01-06T07:44:43;6.20;99.90
7958;DHT22;4024;52.172;5.378;2024-01-06T07:47:09;6.20;99.90
7958;DHT22;4024;52.172;5.378;2024-01-06T07:49:35;6.20;99.90
7958;DHT22;4024;52.172;5.378;2024-01-06T07:52:00;6.20;99.90
7958;DHT22;4024;52.172;5.378;2024-01-06T07:54:26;6.20;99.90
7958;DHT22;4024;52.172;5.378;2024-01-06T07:56:52;6.10;99.90
7958;DHT22;4024;52.172;5.378;2024-01-06T07:59:17;6.10;99.90
7958;DHT22;4024;52.172;5.378;2024-01-06T08:01:43;6.10;99.90
7958;DHT22;4024;52.172;5.378;2024-01-06T08:04:09;6.10;99.90
7958;DHT22;4024;52.172;5.378;2024-01-06T08:06:35;6.10;99.90
7958;DHT22;4024;52.172;5.378;2024-01-06T08:09:01;6.10;99.90
7958;DHT22;4024;52.172;5.378;2024-01-06T08:11:26;6.10;99.90
7958;DHT22;4024;52.172;5.378;2024-01-06T08:13:54;6.20;99.90
7958;DHT22;4024;52.172;5.378;2024-01-06T08:16:20;6.10;99.90
7958;DHT22;4024;52.172;5.378;2024-01-06T08:18:45;6.10;99.90
7958;DHT22;4024;52.172;5.378;2024-01-06T08:21:11;6.20;99.90
7958;DHT22;4024;52.172;5.378;2024-01-06T08:23:37;6.20;99.90
7958;DHT22;4024;52.172;5.378;2024-01-06T08:26:03;6.10;99.90
7958;DHT22;4024;52.172;5.378;2024-01-06T08:28:29;6.20;99.90
7958;DHT22;4024;52.172;5.378;2024-01-06T08:30:55;6.20;99.90
7958;DHT22;4024;52.172;5.378;2024-01-06T08:33:21;6.20;99.90
7958;DHT22;4024;52.172;5.378;2024-01-06T08:35:46;6.20;99.90
7958;DHT22;4024;52.172;5.378;2024-01-06T08:38:12;6.20;99.90
7958;DHT22;4024;52.172;5.378;2024-01-06T08:40:38;6.20;99.90
7958;DHT22;4024;52.172;5.378;2024-01-06T08:43:03;6.20;99.90
7958;DHT22;4024;52.172;5.378;2024-01-06T08:45:29;6.20;99.90
7958;DHT22;4024;52.172;5.378;2024-01-06T08:47:54;6.20;99.90
7958;DHT22;4024;52.172;5.378;2024-01-06T08:50:20;6.20;99.90
7958;DHT22;4024;52.172;5.378;2024-01-06T08:52:46;6.20;99.90
7958;DHT22;4024;52.172;5.378;2024-01-06T08:55:11;6.20;99.90
7958;DHT22;4024;52.172;5.378;2024-01-06T08:57:37;6.20;99.90
7958;DHT22;4024;52.172;5.378;2024-01-06T09:00:03;6.20;99.90
7958;DHT22;4024;52.172;5.378;2024-01-06T09:02:29;6.20;99.90
7958;DHT22;4024;52.172;5.378;2024-01-06T09:04:55;6.30;99.90
7958;DHT22;4024;52.172;5.378;2024-01-06T09:07:20;6.30;99.90
7958;DHT22;4024;52.172;5.378;2024-01-06T09:09:46;6.30;99.90
7958;DHT22;4024;52.172;5.378;2024-01-06T09:12:12;6.30;99.90
7958;DHT22;4024;52.172;5.378;2024-01-06T09:14:37;6.30;99.90
7958;DHT22;4024;52.172;5.378;2024-01-06T09:17:03;6.30;99.90
7958;DHT22;4024;52.172;5.378;2024-01-06T09:19:29;6.40;99.90
7958;DHT22;4024;52.172;5.378;2024-01-06T09:21:56;6.40;99.90
7958;DHT22;4024;52.172;5.378;2024-01-06T09:24:21;6.40;99.90
7958;DHT22;4024;52.172;5.378;2024-01-06T09:26:47;6.30;99.90
7958;DHT22;4024;52.172;5.378;2024-01-06T09:29:13;6.40;99.90
7958;DHT22;4024;52.172;5.378;2024-01-06T09:31:39;6.40;99.90
7958;DHT22;4024;52.172;5.378;2024-01-06T09:34:04;6.40;99.90
7958;DHT22;4024;52.172;5.378;2024-01-06T09:36:31;6.40;99.90
7958;DHT22;4024;52.172;5.378;2024-01-06T09:38:57;6.40;99.90
7958;DHT22;4024;52.172;5.378;2024-01-06T09:41:23;6.40;99.90
7958;DHT22;4024;52.172;5.378;2024-01-06T09:43:50;6.40;99.90
7958;DHT22;4024;52.172;5.378;2024-01-06T09:48:48;6.40;99.90
7958;DHT22;4024;52.172;5.378;2024-01-06T09:51:16;6.50;99.90
7958;DHT22;4024;52.172;5.378;2024-01-06T09:53:49;6.50;99.90
7958;DHT22;4024;52.172;5.378;2024-01-06T09:56:16;6.50;99.90
7958;DHT22;4024;52.172;5.378;2024-01-06T09:58:42;6.50;99.90
7958;DHT22;4024;52.172;5.378;2024-01-06T10:01:08;6.50;99.90
7958;DHT22;4024;52.172;5.378;2024-01-06T10:03:36;6.50;99.90
7958;DHT22;4024;52.172;5.378;2024-01-06T10:06:02;6.50;99.90
7958;DHT22;4024;52.172;5.378;2024-01-06T10:08:29;6.60;99.90
7958;DHT22;4024;52.172;5.378;2024-01-06T10:10:55;6.60;99.90
7958;DHT22;4024;52.172;5.378;2024-01-06T10:13:21;6.60;99.90
7958;DHT22;4024;52.172;5.378;2024-01-06T10:15:46;6.60;99.90
7958;DHT22;4024;52.172;5.378;2024-01-06T10:18:13;6.60;99.90
7958;DHT22;4024;52.172;5.378;2024-01-06T10:20:38;6.60;99.90
7958;DHT22;4024;52.172;5.378;2024-01-06T10:23:05;6.60;99.90
7958;DHT22;4024;52.172;5.378;2024-01-06T10:25:32;6.60;99.90
7958;DHT22;4024;52.172;5.378;2024-01-06T10:28:00;6.60;99.90
7958;DHT22;4024;52.172;5.378;2024-01-06T10:30:26;6.60;99.90
7958;DHT22;4024;52.172;5.378;2024-01-06T10:32:52;6.70;99.90
7958;DHT22;4024;52.172;5.378;2024-01-06T10:35:18;6.70;99.90
7958;DHT22;4024;52.172;5.378;2024-01-06T10:37:45;6.70;99.90
7958;DHT22;4024;52.172;5.378;2024-01-06T10:40:12;6.70;99.90
7958;DHT22;4024;52.172;5.378;2024-01-06T10:42:39;6.70;99.90
7958;DHT22;4024;52.172;5.378;2024-01-06T10:45:10;6.70;99.90
7958;DHT22;4024;52.172;5.378;2024-01-06T10:47:37;6.70;99.90
7958;DHT22;4024;52.172;5.378;2024-01-06T10:50:04;6.70;99.90
7958;DHT22;4024;52.172;5.378;2024-01-06T10:52:30;6.70;99.90
7958;DHT22;4024;52.172;5.378;2024-01-06T10:54:57;6.70;99.90
7958;DHT22;4024;52.172;5.378;2024-01-06T10:57:23;6.70;99.90
7958;DHT22;4024;52.172;5.378;2024-01-06T10:59:50;6.70;99.90
7958;DHT22;4024;52.172;5.378;2024-01-06T11:02:17;6.70;99.90
7958;DHT22;4024;52.172;5.378;2024-01-06T11:04:46;6.80;99.90
7958;DHT22;4024;52.172;5.378;2024-01-06T11:07:15;6.70;99.90
7958;DHT22;4024;52.172;5.378;2024-01-06T11:12:28;6.80;99.90
7958;DHT22;4024;52.172;5.378;2024-01-06T11:14:54;6.80;99.90
7958;DHT22;4024;52.172;5.378;2024-01-06T11:20:22;6.80;99.90
7958;DHT22;4024;52.172;5.378;2024-01-06T11:22:48;6.70;99.90
7958;DHT22;4024;52.172;5.378;2024-01-06T11:25:15;6.70;99.90
7958;DHT22;4024;52.172;5.378;2024-01-06T11:27:43;6.70;99.90
7958;DHT22;4024;52.172;5.378;2024-01-06T11:30:22;6.70;99.90
7958;DHT22;4024;52.172;5.378;2024-01-06T11:32:50;6.70;99.90
7958;DHT22;4024;52.172;5.378;2024-01-06T11:35:18;6.70;99.90
7958;DHT22;4024;52.172;5.378;2024-01-06T11:42:46;6.60;99.90
7958;DHT22;4024;52.172;5.378;2024-01-06T11:45:13;6.70;99.90
7958;DHT22;4024;52.172;5.378;2024-01-06T11:47:39;6.70;99.90
7958;DHT22;4024;52.172;5.378;2024-01-06T11:50:06;6.70;99.90
7958;DHT22;4024;52.172;5.378;2024-01-06T11:52:33;6.70;99.90
7958;DHT22;4024;52.172;5.378;2024-01-06T11:54:59;6.70;99.90
7958;DHT22;4024;52.172;5.378;2024-01-06T11:57:26;6.70;99.90
7958;DHT22;4024;52.172;5.378;2024-01-06T11:59:52;6.60;99.90
7958;DHT22;4024;52.172;5.378;2024-01-06T12:02:19;6.70;99.90
7958;DHT22;4024;52.172;5.378;2024-01-06T12:04:54;6.70;99.90
7958;DHT22;4024;52.172;5.378;2024-01-06T12:07:21;6.70;99.90
7958;DHT22;4024;52.172;5.378;2024-01-06T12:09:48;6.70;99.90
7958;DHT22;4024;52.172;5.378;2024-01-06T12:12:17;6.70;99.90
7958;DHT22;4024;52.172;5.378;2024-01-06T12:14:43;6.70;99.90
7958;DHT22;4024;52.172;5.378;2024-01-06T12:17:09;6.70;99.90
7958;DHT22;4024;52.172;5.378;2024-01-06T12:19:35;6.70;99.90
7958;DHT22;4024;52.172;5.378;2024-01-06T12:22:01;6.70;99.90
7958;DHT22;4024;52.172;5.378;2024-01-06T12:24:28;6.70;99.90
7958;DHT22;4024;52.172;5.378;2024-01-06T12:26:58;6.70;99.90
7958;DHT22;4024;52.172;5.378;2024-01-06T12:29:27;6.70;99.90
7958;DHT22;4024;52.172;5.378;2024-01-06T12:31:59;6.70;99.90
7958;DHT22;4024;52.172;5.378;2024-01-06T12:34:24;6.60;99.90
7958;DHT22;4024;52.172;5.378;2024-01-06T12:36:53;6.70;99.90
7958;DHT22;4024;52.172;5.378;2024-01-06T12:39:19;6.60;99.90
7958;DHT22;4024;52.172;5.378;2024-01-06T12:41:45;6.60;99.90
7958;DHT22;4024;52.172;5.378;2024-01-06T12:44:10;6.60;99.90
7958;DHT22;4024;52.172;5.378;2024-01-06T12:46:36;6.60;99.90
7958;DHT22;4024;52.172;5.378;2024-01-06T12:49:02;6.60;99.90
7958;DHT22;4024;52.172;5.378;2024-01-06T12:51:28;6.60;99.90
7958;DHT22;4024;52.172;5.378;2024-01-06T12:53:54;6.50;99.90
7958;DHT22;4024;52.172;5.378;2024-01-06T12:56:20;6.50;99.90
7958;DHT22;4024;52.172;5.378;2024-01-06T12:58:46;6.50;99.90
7958;DHT22;4024;52.172;5.378;2024-01-06T13:01:11;6.50;99.90
7958;DHT22;4024;52.172;5.378;2024-01-06T13:03:37;6.50;99.90
7958;DHT22;4024;52.172;5.378;2024-01-06T13:06:03;6.50;99.90
7958;DHT22;4024;52.172;5.378;2024-01-06T13:08:29;6.50;99.90
7958;DHT22;4024;52.172;5.378;2024-01-06T13:10:55;6.50;99.90
7958;DHT22;4024;52.172;5.378;2024-01-06T13:13:21;6.50;99.90
7958;DHT22;4024;52.172;5.378;2024-01-06T13:15:47;6.50;99.90
7958;DHT22;4024;52.172;5.378;2024-01-06T13:18:13;6.50;99.90
7958;DHT22;4024;52.172;5.378;2024-01-06T13:20:39;6.40;99.90
7958;DHT22;4024;52.172;5.378;2024-01-06T13:23:07;6.40;99.90
7958;DHT22;4024;52.172;5.378;2024-01-06T13:25:33;6.40;99.90
7958;DHT22;4024;52.172;5.378;2024-01-06T13:27:58;6.40;99.90
7958;DHT22;4024;52.172;5.378;2024-01-06T13:30:25;6.40;99.90
7958;DHT22;4024;52.172;5.378;2024-01-06T13:32:54;6.40;99.90
7958;DHT22;4024;52.172;5.378;2024-01-06T13:35:20;6.40;99.90
7958;DHT22;4024;52.172;5.378;2024-01-06T13:37:46;6.40;99.90
7958;DHT22;4024;52.172;5.378;2024-01-06T13:40:14;6.30;99.90
7958;DHT22;4024;52.172;5.378;2024-01-06T13:42:39;6.30;99.90
7958;DHT22;4024;52.172;5.378;2024-01-06T13:45:06;6.30;99.90
7958;DHT22;4024;52.172;5.378;2024-01-06T13:47:32;6.30;99.90
7958;DHT22;4024;52.172;5.378;2024-01-06T13:49:59;6.30;99.90
7958;DHT22;4024;52.172;5.378;2024-01-06T13:52:25;6.30;99.90
7958;DHT22;4024;52.172;5.378;2024-01-06T13:54:51;6.30;99.90
7958;DHT22;4024;52.172;5.378;2024-01-06T13:57:16;6.30;99.90
7958;DHT22;4024;52.172;5.378;2024-01-06T13:59:42;6.30;99.90
7958;DHT22;4024;52.172;5.378;2024-01-06T14:02:10;6.30;99.90
7958;DHT22;4024;52.172;5.378;2024-01-06T14:04:36;6.30;99.90
7958;DHT22;4024;52.172;5.378;2024-01-06T14:07:02;6.30;99.90
7958;DHT22;4024;52.172;5.378;2024-01-06T14:09:28;6.30;99.90
7958;DHT22;4024;52.172;5.378;2024-01-06T14:11:53;6.30;99.90
7958;DHT22;4024;52.172;5.378;2024-01-06T14:14:20;6.30;99.90
7958;DHT22;4024;52.172;5.378;2024-01-06T14:16:46;6.30;99.90
7958;DHT22;4024;52.172;5.378;2024-01-06T14:19:12;6.30;99.90
7958;DHT22;4024;52.172;5.378;2024-01-06T14:21:38;6.30;99.90
7958;DHT22;4024;52.172;5.378;2024-01-06T14:24:04;6.30;99.90
7958;DHT22;4024;52.172;5.378;2024-01-06T14:26:34;6.20;99.90
7958;DHT22;4024;52.172;5.378;2024-01-06T14:28:59;6.20;99.90
7958;DHT22;4024;52.172;5.378;2024-01-06T14:31:25;6.30;99.90
7958;DHT22;4024;52.172;5.378;2024-01-06T14:33:54;6.30;99.90
7958;DHT22;4024;52.172;5.378;2024-01-06T14:36:20;6.20;99.90
7958;DHT22;4024;52.172;5.378;2024-01-06T14:38:46;6.20;99.90
7958;DHT22;4024;52.172;5.378;2024-01-06T14:41:11;6.20;99.90
7958;DHT22;4024;52.172;5.378;2024-01-06T14:43:37;6.20;99.90
7958;DHT22;4024;52.172;5.378;2024-01-06T14:46:03;6.20;99.90
7958;DHT22;4024;52.172;5.378;2024-01-06T14:48:30;6.20;99.90
7958;DHT22;4024;52.172;5.378;2024-01-06T14:50:56;6.20;99.90
7958;DHT22;4024;52.172;5.378;2024-01-06T14:53:21;6.30;99.90
7958;DHT22;4024;52.172;5.378;2024-01-06T14:55:47;6.20;99.90
7958;DHT22;4024;52.172;5.378;2024-01-06T14:58:12;6.20;99.90
7958;DHT22;4024;52.172;5.378;2024-01-06T15:00:38;6.20;99.90
7958;DHT22;4024;52.172;5.378;2024-01-06T15:03:04;6.20;99.90
7958;DHT22;4024;52.172;5.378;2024-01-06T15:05:29;6.20;99.90
7958;DHT22;4024;52.172;5.378;2024-01-06T15:07:55;6.20;99.90
7958;DHT22;4024;52.172;5.378;2024-01-06T15:10:21;6.20;99.90
7958;DHT22;4024;52.172;5.378;2024-01-06T15:12:47;6.20;99.90
7958;DHT22;4024;52.172;5.378;2024-01-06T15:15:13;6.20;99.90
7958;DHT22;4024;52.172;5.378;2024-01-06T15:17:39;6.10;99.90
7958;DHT22;4024;52.172;5.378;2024-01-06T15:20:05;6.10;99.90
7958;DHT22;4024;52.172;5.378;2024-01-06T15:22:31;6.10;99.90
7958;DHT22;4024;52.172;5.378;2024-01-06T15:24:57;6.10;99.90
7958;DHT22;4024;52.172;5.378;2024-01-06T15:27:22;6.20;99.90
7958;DHT22;4024;52.172;5.378;2024-01-06T15:29:49;6.20;99.90
7958;DHT22;4024;52.172;5.378;2024-01-06T15:32:15;6.10;99.90
7958;DHT22;4024;52.172;5.378;2024-01-06T15:34:40;6.10;99.90
7958;DHT22;4024;52.172;5.378;2024-01-06T15:37:06;6.10;99.90
7958;DHT22;4024;52.172;5.378;2024-01-06T15:39:31;6.20;99.90
7958;DHT22;4024;52.172;5.378;2024-01-06T15:41:57;6.10;99.90
7958;DHT22;4024;52.172;5.378;2024-01-06T15:44:23;6.20;99.90
7958;DHT22;4024;52.172;5.378;2024-01-06T15:46:48;6.20;99.90
7958;DHT22;4024;52.172;5.378;2024-01-06T15:49:15;6.20;99.90
7958;DHT22;4024;52.172;5.378;2024-01-06T15:51:40;6.20;99.90
7958;DHT22;4024;52.172;5.378;2024-01-06T15:54:06;6.20;99.90
7958;DHT22;4024;52.172;5.378;2024-01-06T15:56:31;6.20;99.90
7958;DHT22;4024;52.172;5.378;2024-01-06T15:58:57;6.20;99.90
7958;DHT22;4024;52.172;5.378;2024-01-06T16:01:23;6.20;99.90
7958;DHT22;4024;52.172;5.378;2024-01-06T16:03:49;6.10;99.90
7958;DHT22;4024;52.172;5.378;2024-01-06T16:06:15;6.20;99.90
7958;DHT22;4024;52.172;5.378;2024-01-06T16:08:40;6.10;99.90
7958;DHT22;4024;52.172;5.378;2024-01-06T16:11:06;6.10;99.90
7958;DHT22;4024;52.172;5.378;2024-01-06T16:13:31;6.10;99.90
7958;DHT22;4024;52.172;5.378;2024-01-06T16:15:57;6.10;99.90
7958;DHT22;4024;52.172;5.378;2024-01-06T16:18:23;6.10;99.90
7958;DHT22;4024;52.172;5.378;2024-01-06T16:20:48;6.10;99.90